createdAt,value
2022-10-11T00:02:11.517Z,2.30
2022-10-11T00:04:38.561Z,2.13
2022-10-11T00:07:05.470Z,2.38
2022-10-11T00:09:32.442Z,2.20
2022-10-11T00:11:59.436Z,3.40
2022-10-11T00:14:27.664Z,2.15
2022-10-11T00:16:54.651Z,2.03
2022-10-11T00:19:22.096Z,2.45
2022-10-11T00:21:49.036Z,2.30
2022-10-11T00:24:16.918Z,2.22
2022-10-11T00:26:47.024Z,2.10
2022-10-11T00:29:14.561Z,2.25
2022-10-11T00:31:41.511Z,1.73
2022-10-11T00:34:10.234Z,1.92
2022-10-11T00:36:37.147Z,1.80
2022-10-11T00:39:04.981Z,1.98
2022-10-11T00:41:31.840Z,2.10
2022-10-11T00:44:14.968Z,2.08
2022-10-11T00:46:46.088Z,2.10
2022-10-11T00:49:26.174Z,2.25
2022-10-11T00:51:57.132Z,2.78
2022-10-11T00:54:27.134Z,2.50
2022-10-11T00:56:59.826Z,2.13
2022-10-11T00:59:30.959Z,2.15
2022-10-11T01:01:57.944Z,2.38
2022-10-11T01:04:24.890Z,2.08
2022-10-11T01:06:53.257Z,1.92
2022-10-11T01:09:21.395Z,1.55
2022-10-11T01:11:51.361Z,1.45
2022-10-11T01:14:38.259Z,2.20
2022-10-11T01:17:13.929Z,1.73
2022-10-11T01:20:32.073Z,1.50
2022-10-11T01:23:36.857Z,1.83
2022-10-11T01:26:16.098Z,1.75
2022-10-11T01:29:01.355Z,2.10
2022-10-11T01:31:43.605Z,1.90
2022-10-11T01:34:19.615Z,2.22
2022-10-11T01:37:13.518Z,2.20
2022-10-11T01:39:59.279Z,2.13
2022-10-11T01:44:55.182Z,1.90
2022-10-11T01:47:23.615Z,2.75
2022-10-11T01:49:59.029Z,2.08
2022-10-11T01:52:29.193Z,2.35
2022-10-11T01:55:27.772Z,1.80
2022-10-11T01:58:14.318Z,1.77
2022-10-11T02:00:55.557Z,2.03
2022-10-11T02:03:47.192Z,2.38
2022-10-11T02:06:51.360Z,2.13
2022-10-11T02:09:29.668Z,2.00
2022-10-11T02:12:02.312Z,2.13
2022-10-11T02:14:35.644Z,3.72
2022-10-11T02:17:07.929Z,3.90
2022-10-11T02:19:39.595Z,3.17
2022-10-11T02:22:15.090Z,5.18
2022-10-11T02:24:47.161Z,3.55
2022-10-11T02:27:17.317Z,3.25
2022-10-11T02:29:45.369Z,3.22
2022-10-11T02:32:14.066Z,2.20
2022-10-11T02:34:47.605Z,2.20
2022-10-11T02:37:29.646Z,1.73
2022-10-11T02:40:02.381Z,2.10
2022-10-11T02:42:37.206Z,2.28
2022-10-11T02:45:14.873Z,2.35
2022-10-11T02:47:43.528Z,2.15
2022-10-11T02:50:14.645Z,2.22
2022-10-11T02:52:41.646Z,2.30
2022-10-11T02:55:09.097Z,2.10
2022-10-11T02:57:35.961Z,2.42
2022-10-11T03:00:03.970Z,3.63
2022-10-11T03:02:30.877Z,2.17
2022-10-11T03:04:57.758Z,2.53
2022-10-11T03:07:24.837Z,2.75
2022-10-11T03:09:51.718Z,3.55
2022-10-11T03:12:18.580Z,2.33
2022-10-11T03:14:45.536Z,3.60
2022-10-11T03:17:35.177Z,2.80
2022-10-11T03:19:59.343Z,2.78
2022-10-11T03:22:26.258Z,2.58
2022-10-11T03:24:53.199Z,2.30
2022-10-11T03:27:20.040Z,1.90
2022-10-11T03:29:46.898Z,2.40
2022-10-11T03:32:13.797Z,1.90
2022-10-11T03:34:40.657Z,2.38
2022-10-11T03:37:07.560Z,2.33
2022-10-11T03:39:34.669Z,2.63
2022-10-11T03:42:01.523Z,2.88
2022-10-11T03:44:28.393Z,3.00
2022-10-11T03:46:55.304Z,2.97
2022-10-11T03:49:22.215Z,3.00
2022-10-11T03:51:49.067Z,2.50
2022-10-11T03:54:16.083Z,3.70
2022-10-11T03:56:42.933Z,3.00
2022-10-11T03:59:10.743Z,3.92
2022-10-11T04:01:38.657Z,2.92
2022-10-11T04:04:06.014Z,3.05
2022-10-11T04:06:33.487Z,3.35
2022-10-11T04:09:00.514Z,3.47
2022-10-11T04:11:27.478Z,3.60
2022-10-11T04:13:54.376Z,3.00
2022-10-11T04:16:21.266Z,3.47
2022-10-11T04:18:48.181Z,4.38
2022-10-11T04:21:15.063Z,3.92
2022-10-11T04:23:41.962Z,2.85
2022-10-11T04:26:09.153Z,3.00
2022-10-11T04:28:36.376Z,3.42
2022-10-11T04:31:05.279Z,3.10
2022-10-11T04:33:32.413Z,2.70
2022-10-11T04:35:59.370Z,2.17
2022-10-11T04:38:26.205Z,2.55
2022-10-11T04:40:53.099Z,2.30
2022-10-11T04:43:20.121Z,2.40
2022-10-11T04:45:46.987Z,2.47
2022-10-11T04:48:14.320Z,2.92
2022-10-11T04:50:41.272Z,2.35
2022-10-11T04:53:08.382Z,2.33
2022-10-11T04:55:35.356Z,1.45
2022-10-11T04:58:02.319Z,2.17
2022-10-11T05:00:29.274Z,2.20
2022-10-11T05:02:56.336Z,2.00
2022-10-11T05:05:23.230Z,2.35
2022-10-11T05:07:50.110Z,1.90
2022-10-11T05:10:17.225Z,2.40
2022-10-11T05:12:44.325Z,2.10
2022-10-11T05:15:11.219Z,1.83
2022-10-11T05:17:38.187Z,1.88
2022-10-11T05:20:05.581Z,2.28
2022-10-11T05:22:32.502Z,2.45
2022-10-11T05:24:59.366Z,2.83
2022-10-11T05:27:26.261Z,2.67
2022-10-11T05:29:53.182Z,2.28
2022-10-11T05:32:20.091Z,2.70
2022-10-11T05:34:47.201Z,3.20
2022-10-11T05:37:14.114Z,2.78
2022-10-11T05:39:41.053Z,2.33
2022-10-11T05:42:10.053Z,3.38
2022-10-11T05:44:37.067Z,2.40
2022-10-11T05:47:04.001Z,3.03
2022-10-11T05:49:31.011Z,2.78
2022-10-11T05:51:57.988Z,2.47
2022-10-11T05:54:24.931Z,3.08
2022-10-11T05:56:51.828Z,2.97
2022-10-11T05:59:18.731Z,2.60
2022-10-11T06:01:45.703Z,3.00
2022-10-11T06:04:12.921Z,2.47
2022-10-11T06:06:39.846Z,3.00
2022-10-11T06:09:06.782Z,2.30
2022-10-11T06:11:34.214Z,2.20
2022-10-11T06:14:01.143Z,1.98
2022-10-11T06:16:28.175Z,2.13
2022-10-11T06:18:56.549Z,2.53
2022-10-11T06:21:24.589Z,2.10
2022-10-11T06:23:56.855Z,2.20
2022-10-11T06:26:26.991Z,2.03
2022-10-11T06:28:54.015Z,2.30
2022-10-11T06:31:20.990Z,2.28
2022-10-11T06:33:47.874Z,2.67
2022-10-11T06:36:17.034Z,2.35
2022-10-11T06:38:45.463Z,3.25
2022-10-11T06:41:33.015Z,3.63
2022-10-11T06:44:00.161Z,3.10
2022-10-11T06:46:28.129Z,2.75
2022-10-11T06:48:56.549Z,2.63
2022-10-11T06:51:23.811Z,2.95
2022-10-11T06:53:52.520Z,4.13
2022-10-11T06:56:19.885Z,2.78
2022-10-11T06:58:47.399Z,2.90
2022-10-11T07:01:20.759Z,2.85
2022-10-11T07:03:48.534Z,2.90
2022-10-11T07:06:21.951Z,4.07
2022-10-11T07:08:49.740Z,1.60
2022-10-11T07:11:19.265Z,2.67
2022-10-11T07:14:12.615Z,2.60
2022-10-11T07:16:39.570Z,3.55
2022-10-11T07:19:06.981Z,2.65
2022-10-11T07:21:35.164Z,1.85
2022-10-11T07:24:02.758Z,1.65
2022-10-11T07:26:35.287Z,1.23
2022-10-11T07:29:05.904Z,1.35
2022-10-11T07:31:33.059Z,1.52
2022-10-11T07:33:59.987Z,1.00
2022-10-11T07:36:45.578Z,1.13
2022-10-11T07:39:12.701Z,1.00
2022-10-11T07:41:44.618Z,1.67
2022-10-11T07:44:12.497Z,0.85
2022-10-11T07:46:39.504Z,0.88
2022-10-11T07:49:06.568Z,0.82
2022-10-11T07:51:33.541Z,1.08
2022-10-11T07:54:04.720Z,0.82
2022-10-11T07:56:33.852Z,0.50
2022-10-11T07:59:03.666Z,1.17
2022-10-11T08:01:31.660Z,0.70
2022-10-11T08:03:59.261Z,0.60
2022-10-11T08:06:31.707Z,0.77
2022-10-11T08:09:00.739Z,0.90
2022-10-11T08:11:34.254Z,0.60
2022-10-11T08:14:04.646Z,0.90
2022-10-11T08:16:31.567Z,0.63
2022-10-11T08:18:58.558Z,1.35
2022-10-11T08:21:26.970Z,0.65
2022-10-11T08:23:53.894Z,0.60
2022-10-11T08:26:21.268Z,0.60
2022-10-11T08:28:48.248Z,0.80
2022-10-11T08:31:16.317Z,0.70
2022-10-11T08:33:43.694Z,0.80
2022-10-11T08:36:11.764Z,0.80
2022-10-11T08:38:39.362Z,0.73
2022-10-11T08:41:27.853Z,1.10
2022-10-11T08:44:19.726Z,0.70
2022-10-11T08:46:53.233Z,1.08
2022-10-11T08:49:26.960Z,1.20
2022-10-11T08:52:02.773Z,1.20
2022-10-11T08:54:39.243Z,0.60
2022-10-11T08:57:10.171Z,1.00
2022-10-11T08:59:43.386Z,0.98
2022-10-11T09:02:25.701Z,0.70
2022-10-11T09:04:54.833Z,0.80
2022-10-11T09:07:49.963Z,0.80
2022-10-11T09:10:34.874Z,0.90
2022-10-11T09:13:07.948Z,0.80
2022-10-11T09:15:59.280Z,1.13
2022-10-11T09:19:01.623Z,0.80
2022-10-11T09:21:35.188Z,1.00
2022-10-11T09:24:20.834Z,0.90
2022-10-11T09:27:18.429Z,0.50
2022-10-11T09:30:02.753Z,0.65
2022-10-11T09:32:36.180Z,0.93
2022-10-11T09:35:14.034Z,0.70
2022-10-11T09:37:59.434Z,0.60
2022-10-11T09:40:44.823Z,0.90
2022-10-11T09:43:12.408Z,0.80
2022-10-11T09:45:49.272Z,0.75
2022-10-11T09:48:37.825Z,0.63
2022-10-11T09:51:21.228Z,0.68
2022-10-11T09:53:56.488Z,0.80
2022-10-11T09:56:25.488Z,0.70
2022-10-11T09:59:24.243Z,1.20
2022-10-11T10:02:16.773Z,1.10
2022-10-11T10:05:12.791Z,0.60
2022-10-11T10:07:41.277Z,0.98
2022-10-11T10:10:34.910Z,0.73
2022-10-11T10:13:06.055Z,0.80
2022-10-11T10:15:37.748Z,0.80
2022-10-11T10:18:10.618Z,0.73
2022-10-11T10:20:38.675Z,0.60
2022-10-11T10:23:19.501Z,0.50
2022-10-11T10:25:51.859Z,0.80
2022-10-11T10:28:24.152Z,0.93
2022-10-11T10:30:58.883Z,1.08
2022-10-11T10:33:31.331Z,1.83
2022-10-11T10:36:08.112Z,0.60
2022-10-11T10:38:43.138Z,1.15
2022-10-11T10:41:14.158Z,0.88
2022-10-11T10:43:43.638Z,0.77
2022-10-11T10:46:21.293Z,0.90
2022-10-11T10:49:41.259Z,0.90
2022-10-11T10:52:08.341Z,1.23
2022-10-11T10:55:00.468Z,0.80
2022-10-11T10:57:33.008Z,0.80
2022-10-11T11:00:09.981Z,0.70
2022-10-11T11:02:58.041Z,0.73
2022-10-11T11:05:51.805Z,1.00
2022-10-11T11:08:33.493Z,0.95
2022-10-11T11:11:06.433Z,1.00
2022-10-11T11:13:54.528Z,0.90
2022-10-11T11:16:39.066Z,0.77
2022-10-11T11:19:20.911Z,0.88
2022-10-11T11:22:14.827Z,1.08
2022-10-11T11:25:00.487Z,1.67
2022-10-11T11:28:06.423Z,1.10
2022-10-11T11:30:57.494Z,1.52
2022-10-11T11:33:49.657Z,1.05
2022-10-11T11:36:38.780Z,0.85
2022-10-11T11:39:11.616Z,0.98
2022-10-11T11:41:43.686Z,1.05
2022-10-11T11:44:27.483Z,0.80
2022-10-11T11:47:03.980Z,1.15
2022-10-11T11:49:54.293Z,1.20
2022-10-11T11:52:33.782Z,1.00
2022-10-11T11:55:33.562Z,0.95
2022-10-11T11:58:21.825Z,3.03
2022-10-11T12:01:05.562Z,1.05
2022-10-11T12:03:42.045Z,1.52
2022-10-11T12:06:14.739Z,1.30
2022-10-11T12:08:44.940Z,1.17
2022-10-11T12:11:25.616Z,1.40
2022-10-11T12:13:55.997Z,1.20
2022-10-11T12:16:23.565Z,1.63
2022-10-11T12:18:52.518Z,1.85
2022-10-11T12:21:26.498Z,1.20
2022-10-11T12:23:59.960Z,1.30
2022-10-11T12:26:29.887Z,1.42
2022-10-11T12:29:17.138Z,1.90
2022-10-11T12:32:28.729Z,1.65
2022-10-11T12:35:33.509Z,0.95
2022-10-11T12:38:15.548Z,1.65
2022-10-11T12:40:47.340Z,1.75
2022-10-11T12:43:14.324Z,1.85
2022-10-11T12:45:47.866Z,1.17
2022-10-11T12:49:03.927Z,1.10
2022-10-11T12:51:47.109Z,1.55
2022-10-11T12:54:41.935Z,1.00
2022-10-11T12:57:12.016Z,1.35
2022-10-11T12:59:45.189Z,1.10
2022-10-11T13:02:44.306Z,1.73
2022-10-11T13:05:45.063Z,1.27
2022-10-11T13:08:18.815Z,1.60
2022-10-11T13:10:47.458Z,1.45
2022-10-11T13:13:25.020Z,1.38
2022-10-11T13:15:56.806Z,1.10
2022-10-11T13:18:26.401Z,1.25
2022-10-11T13:20:53.361Z,1.63
2022-10-11T13:23:26.064Z,1.15
2022-10-11T13:25:54.038Z,1.05
2022-10-11T13:28:22.288Z,1.35
2022-10-11T13:30:53.518Z,1.55
2022-10-11T13:33:25.331Z,1.20
2022-10-11T13:35:52.970Z,1.77
2022-10-11T13:38:26.825Z,1.30
2022-10-11T13:40:56.105Z,1.13
2022-10-11T13:43:27.465Z,1.33
2022-10-11T13:45:55.897Z,1.75
2022-10-11T13:48:22.875Z,1.63
2022-10-11T13:51:17.077Z,1.90
2022-10-11T13:54:05.174Z,1.35
2022-10-11T13:56:37.661Z,1.23
2022-10-11T13:59:05.201Z,1.75
2022-10-11T14:01:45.305Z,1.42
2022-10-11T14:04:17.578Z,2.00
2022-10-11T14:06:56.586Z,1.60
2022-10-11T14:09:30.305Z,1.00
2022-10-11T14:12:28.352Z,2.05
2022-10-11T14:14:55.336Z,3.10
2022-10-11T14:17:37.451Z,2.38
2022-10-11T14:20:13.761Z,1.50
2022-10-11T14:22:40.653Z,1.13
2022-10-11T14:25:07.596Z,1.40
2022-10-11T14:27:34.892Z,1.30
2022-10-11T14:32:51.218Z,1.30
2022-10-11T14:35:21.596Z,1.40
2022-10-11T14:37:48.492Z,1.73
2022-10-11T14:40:22.726Z,1.58
2022-10-11T14:42:49.797Z,1.50
2022-10-11T14:45:17.825Z,1.50
2022-10-11T14:47:45.420Z,2.00
2022-10-11T14:50:39.407Z,1.85
2022-10-11T14:53:07.812Z,1.23
2022-10-11T14:55:39.096Z,1.75
2022-10-11T14:58:09.128Z,1.85
2022-10-11T15:00:36.820Z,2.08
2022-10-11T15:03:05.300Z,2.20
2022-10-11T15:05:34.229Z,2.17
2022-10-11T15:08:02.981Z,2.15
2022-10-11T15:10:36.231Z,1.98
2022-10-11T15:13:05.188Z,1.90
2022-10-11T15:15:35.481Z,2.17
2022-10-11T15:18:05.288Z,1.73
2022-10-11T15:20:41.759Z,1.60
2022-10-11T15:23:10.042Z,2.03
2022-10-11T15:25:39.282Z,1.80
2022-10-11T15:28:07.822Z,2.33
2022-10-11T15:30:40.972Z,2.13
2022-10-11T15:33:08.629Z,2.15
2022-10-11T15:35:35.706Z,1.90
2022-10-11T15:38:02.677Z,2.50
2022-10-11T15:40:35.558Z,2.63
2022-10-11T15:43:02.894Z,2.17
2022-10-11T15:45:30.073Z,2.20
2022-10-11T15:47:57.459Z,2.15
2022-10-11T15:50:39.283Z,2.17
2022-10-11T15:53:17.467Z,2.13
2022-10-11T15:55:46.925Z,2.53
2022-10-11T15:58:16.164Z,2.85
2022-10-11T16:00:44.790Z,2.85
2022-10-11T16:03:16.700Z,2.90
2022-10-11T16:05:44.287Z,2.40
2022-10-11T16:08:11.745Z,2.50
2022-10-11T16:10:39.648Z,2.00
2022-10-11T16:13:06.833Z,2.03
2022-10-11T16:15:35.078Z,2.40
2022-10-11T16:18:02.540Z,2.70
2022-10-11T16:20:29.504Z,2.58
2022-10-11T16:22:56.567Z,2.95
2022-10-11T16:25:23.989Z,3.33
2022-10-11T16:27:51.585Z,3.00
2022-10-11T16:30:20.252Z,3.17
2022-10-11T16:32:47.521Z,2.60
2022-10-11T16:35:16.293Z,2.78
2022-10-11T16:37:43.666Z,2.72
2022-10-11T16:40:12.083Z,2.67
2022-10-11T16:42:39.701Z,2.55
2022-10-11T16:45:07.125Z,3.53
2022-10-11T16:47:34.231Z,2.80
2022-10-11T16:50:01.157Z,2.88
2022-10-11T16:52:28.236Z,2.85
2022-10-11T16:54:55.432Z,2.22
2022-10-11T16:57:22.506Z,2.30
2022-10-11T16:59:49.534Z,2.72
2022-10-11T17:02:28.753Z,2.67
2022-10-11T17:04:59.221Z,2.33
2022-10-11T17:07:26.692Z,3.53
2022-10-11T17:09:53.758Z,2.67
2022-10-11T17:12:23.232Z,3.08
2022-10-11T17:14:50.725Z,2.83
2022-10-11T17:17:19.174Z,2.75
2022-10-11T17:19:47.703Z,3.03
2022-10-11T17:22:18.641Z,3.00
2022-10-11T17:24:46.020Z,3.08
2022-10-11T17:27:13.619Z,3.30
2022-10-11T17:29:40.554Z,3.85
2022-10-11T17:32:07.891Z,3.95
2022-10-11T17:34:35.078Z,2.95
2022-10-11T17:37:02.002Z,3.60
2022-10-11T17:39:29.087Z,4.20
2022-10-11T17:41:56.040Z,2.80
2022-10-11T17:44:23.226Z,3.47
2022-10-11T17:46:50.379Z,3.22
2022-10-11T17:49:17.361Z,3.25
2022-10-11T17:51:44.595Z,3.20
2022-10-11T17:54:13.099Z,2.95
2022-10-11T17:56:41.414Z,3.30
2022-10-11T17:59:14.507Z,3.60
2022-10-11T18:01:41.580Z,3.40
2022-10-11T18:04:13.639Z,3.55
2022-10-11T18:06:40.706Z,3.53
2022-10-11T18:09:07.799Z,3.17
2022-10-11T18:11:35.047Z,3.35
2022-10-11T18:14:01.967Z,3.00
2022-10-11T18:16:30.823Z,3.13
2022-10-11T18:18:58.636Z,3.97
2022-10-11T18:21:31.184Z,3.60
2022-10-11T18:24:02.493Z,3.47
2022-10-11T18:26:30.638Z,3.53
2022-10-11T18:28:58.636Z,2.20
2022-10-11T18:31:29.541Z,2.70
2022-10-11T18:33:57.284Z,3.20
2022-10-11T18:36:27.565Z,2.95
2022-10-11T18:38:56.886Z,2.75
2022-10-11T18:41:30.723Z,3.25
2022-10-11T18:44:00.347Z,2.85
2022-10-11T18:46:28.348Z,2.42
2022-10-11T18:48:56.565Z,2.38
2022-10-11T18:51:29.130Z,3.35
2022-10-11T18:53:58.969Z,3.10
2022-10-11T18:56:27.414Z,3.00
2022-10-11T18:58:56.235Z,3.08
2022-10-11T19:01:32.177Z,3.03
2022-10-11T19:04:01.231Z,3.53
2022-10-11T19:06:34.026Z,3.45
2022-10-11T19:09:00.854Z,3.05
2022-10-11T19:11:28.132Z,3.35
2022-10-11T19:14:00.556Z,3.58
2022-10-11T19:16:29.856Z,3.67
2022-10-11T19:18:57.849Z,4.82
2022-10-11T19:21:25.399Z,3.85
2022-10-11T19:23:52.830Z,4.20
2022-10-11T19:26:21.388Z,3.95
2022-10-11T19:28:48.974Z,4.78
2022-10-11T19:31:17.081Z,4.63
2022-10-11T19:33:45.438Z,4.70
2022-10-11T19:36:16.697Z,4.68
2022-10-11T19:38:46.276Z,4.88
2022-10-11T19:41:14.206Z,4.85
2022-10-11T19:43:41.148Z,4.63
2022-10-11T19:46:10.427Z,4.57
2022-10-11T19:48:39.467Z,4.65
2022-10-11T19:51:09.327Z,4.43
2022-10-11T19:53:36.308Z,4.07
2022-10-11T19:56:09.314Z,4.40
2022-10-11T19:58:37.079Z,3.65
2022-10-11T20:01:07.050Z,3.80
2022-10-11T20:03:34.490Z,3.33
2022-10-11T20:06:03.534Z,4.00
2022-10-11T20:08:31.470Z,4.03
2022-10-11T20:10:59.797Z,3.92
2022-10-11T20:13:31.200Z,3.50
2022-10-11T20:16:10.173Z,3.63
2022-10-11T20:18:38.340Z,3.75
2022-10-11T20:21:12.293Z,3.95
2022-10-11T20:26:15.177Z,3.50
2022-10-11T20:28:43.075Z,3.35
2022-10-11T20:31:18.989Z,3.80
2022-10-11T20:33:47.170Z,3.60
2022-10-11T20:36:16.738Z,3.55
2022-10-11T20:38:45.627Z,3.10
2022-10-11T20:41:15.014Z,4.60
2022-10-11T20:43:42.903Z,4.72
2022-10-11T20:46:12.717Z,4.53
2022-10-11T20:48:43.337Z,4.40
2022-10-11T20:51:11.387Z,4.47
2022-10-11T20:53:39.051Z,3.88
2022-10-11T20:56:10.798Z,3.83
2022-10-11T20:58:37.759Z,4.10
2022-10-11T21:01:16.091Z,4.03
2022-10-11T21:03:44.081Z,4.28
2022-10-11T21:06:11.797Z,4.80
2022-10-11T21:08:39.602Z,4.03
2022-10-11T21:11:07.545Z,3.90
2022-10-11T21:13:34.978Z,3.83
2022-10-11T21:16:12.009Z,3.70
2022-10-11T21:18:39.493Z,3.13
2022-10-11T21:21:11.535Z,2.85
2022-10-11T21:23:38.938Z,3.20
2022-10-11T21:26:08.733Z,2.63
2022-10-11T21:28:36.416Z,2.97
2022-10-11T21:31:08.936Z,2.58
2022-10-11T21:33:36.594Z,2.88
2022-10-11T21:36:08.753Z,3.17
2022-10-11T21:38:36.334Z,3.22
2022-10-11T21:41:08.849Z,3.50
2022-10-11T21:43:38.404Z,3.33
2022-10-11T21:46:18.756Z,2.85
2022-10-11T21:48:46.095Z,2.92
2022-10-11T21:51:24.776Z,3.00
2022-10-11T21:53:52.620Z,3.40
2022-10-11T21:56:20.090Z,3.60
2022-10-11T21:58:48.376Z,3.50
2022-10-11T22:01:16.221Z,2.78
2022-10-11T22:03:43.855Z,3.22
2022-10-11T22:06:11.136Z,2.67
2022-10-11T22:08:38.417Z,2.58
2022-10-11T22:11:05.655Z,2.72
2022-10-11T22:13:34.052Z,2.33
2022-10-11T22:16:06.173Z,2.55
2022-10-11T22:18:33.855Z,2.67
2022-10-11T22:21:09.884Z,2.15
2022-10-11T22:23:36.845Z,2.63
2022-10-11T22:26:12.147Z,2.92
2022-10-11T22:28:39.619Z,3.13
2022-10-11T22:31:07.833Z,3.38
2022-10-11T22:33:35.217Z,3.65
2022-10-11T22:36:04.005Z,3.20
2022-10-11T22:38:31.236Z,3.15
2022-10-11T22:40:58.995Z,4.03
2022-10-11T22:43:25.936Z,4.20
2022-10-11T22:45:52.855Z,3.47
2022-10-11T22:48:19.896Z,3.47
2022-10-11T22:50:47.213Z,3.40
2022-10-11T22:53:14.838Z,3.15
2022-10-11T22:55:42.020Z,2.67
2022-10-11T22:58:09.502Z,3.65
2022-10-11T23:00:37.018Z,2.45
2022-10-11T23:03:04.377Z,2.38
2022-10-11T23:05:31.298Z,2.90
2022-10-11T23:07:58.136Z,3.35
2022-10-11T23:10:25.027Z,2.88
2022-10-11T23:12:52.035Z,2.97
2022-10-11T23:15:19.077Z,3.03
2022-10-11T23:17:46.109Z,3.50
2022-10-11T23:20:13.200Z,3.05
2022-10-11T23:22:40.093Z,3.20
2022-10-11T23:25:07.709Z,3.47
2022-10-11T23:27:34.772Z,3.25
2022-10-11T23:30:01.894Z,3.70
2022-10-11T23:32:28.835Z,3.17
2022-10-11T23:34:55.798Z,3.63
2022-10-11T23:37:22.670Z,3.28
2022-10-11T23:39:49.549Z,3.25
2022-10-11T23:42:16.417Z,2.40
2022-10-11T23:44:43.311Z,2.47
2022-10-11T23:47:10.279Z,2.97
2022-10-11T23:49:37.137Z,2.30
2022-10-11T23:52:04.135Z,3.08
2022-10-11T23:54:31.089Z,3.30
2022-10-11T23:56:57.940Z,5.00
2022-10-11T23:59:24.826Z,2.72
